sensor_id;sensor_type;location;lat;lon;timestamp;temperature;humidity
25250;DHT22;13201;51.148;13.738;2023-04-03T00:01:30;4.00;99.90
25250;DHT22;13201;51.148;13.738;2023-04-03T00:03:56;4.00;99.90
25250;DHT22;13201;51.148;13.738;2023-04-03T00:06:23;4.10;99.90
25250;DHT22;13201;51.148;13.738;2023-04-03T00:08:49;4.10;99.90
25250;DHT22;13201;51.148;13.738;2023-04-03T00:11:15;4.10;99.90
25250;DHT22;13201;51.148;13.738;2023-04-03T00:13:41;3.90;99.90
25250;DHT22;13201;51.148;13.738;2023-04-03T00:16:08;4.10;99.90
25250;DHT22;13201;51.148;13.738;2023-04-03T00:18:34;4.10;99.90
25250;DHT22;13201;51.148;13.738;2023-04-03T00:21:00;4.00;99.90
25250;DHT22;13201;51.148;13.738;2023-04-03T00:23:26;4.10;99.90
25250;DHT22;13201;51.148;13.738;2023-04-03T00:25:52;4.10;99.90
25250;DHT22;13201;51.148;13.738;2023-04-03T00:28:19;4.00;99.90
25250;DHT22;13201;51.148;13.738;2023-04-03T00:30:45;4.00;99.90
25250;DHT22;13201;51.148;13.738;2023-04-03T00:33:14;4.10;99.90
25250;DHT22;13201;51.148;13.738;2023-04-03T00:35:39;4.10;99.90
25250;DHT22;13201;51.148;13.738;2023-04-03T00:38:05;4.00;99.90
25250;DHT22;13201;51.148;13.738;2023-04-03T00:40:38;4.00;99.90
25250;DHT22;13201;51.148;13.738;2023-04-03T00:43:36;4.20;99.90
25250;DHT22;13201;51.148;13.738;2023-04-03T00:46:03;4.00;99.90
25250;DHT22;13201;51.148;13.738;2023-04-03T00:48:36;3.90;99.90
25250;DHT22;13201;51.148;13.738;2023-04-03T00:51:07;3.90;99.90
25250;DHT22;13201;51.148;13.738;2023-04-03T00:53:43;4.20;99.90
25250;DHT22;13201;51.148;13.738;2023-04-03T00:56:12;3.90;99.90
25250;DHT22;13201;51.148;13.738;2023-04-03T00:58:44;3.80;99.90
25250;DHT22;13201;51.148;13.738;2023-04-03T01:01:15;3.70;99.90
25250;DHT22;13201;51.148;13.738;2023-04-03T01:03:42;3.70;99.90
25250;DHT22;13201;51.148;13.738;2023-04-03T01:33:19;2.60;99.90
25250;DHT22;13201;51.148;13.738;2023-04-03T01:35:45;2.60;99.90
25250;DHT22;13201;51.148;13.738;2023-04-03T01:38:11;2.60;99.90
25250;DHT22;13201;51.148;13.738;2023-04-03T01:40:37;2.80;99.90
25250;DHT22;13201;51.148;13.738;2023-04-03T01:43:02;2.80;99.90
25250;DHT22;13201;51.148;13.738;2023-04-03T01:45:28;2.70;99.90
25250;DHT22;13201;51.148;13.738;2023-04-03T01:47:54;2.80;99.90
25250;DHT22;13201;51.148;13.738;2023-04-03T01:50:20;3.00;99.90
25250;DHT22;13201;51.148;13.738;2023-04-03T01:52:45;3.00;99.90
25250;DHT22;13201;51.148;13.738;2023-04-03T01:55:11;2.90;99.90
25250;DHT22;13201;51.148;13.738;2023-04-03T01:57:37;3.20;99.90
25250;DHT22;13201;51.148;13.738;2023-04-03T02:00:03;3.00;99.90
25250;DHT22;13201;51.148;13.738;2023-04-03T02:02:29;3.10;99.90
25250;DHT22;13201;51.148;13.738;2023-04-03T02:04:55;2.90;99.90
25250;DHT22;13201;51.148;13.738;2023-04-03T02:07:20;2.70;99.90
25250;DHT22;13201;51.148;13.738;2023-04-03T02:09:46;2.80;99.90
25250;DHT22;13201;51.148;13.738;2023-04-03T02:12:12;2.80;99.90
25250;DHT22;13201;51.148;13.738;2023-04-03T02:14:38;2.80;99.90
25250;DHT22;13201;51.148;13.738;2023-04-03T02:17:03;2.80;99.90
25250;DHT22;13201;51.148;13.738;2023-04-03T02:19:36;2.80;99.90
25250;DHT22;13201;51.148;13.738;2023-04-03T02:22:03;2.70;99.90
25250;DHT22;13201;51.148;13.738;2023-04-03T02:24:29;2.70;99.90
25250;DHT22;13201;51.148;13.738;2023-04-03T02:26:55;2.70;99.90
25250;DHT22;13201;51.148;13.738;2023-04-03T02:29:21;2.70;99.90
25250;DHT22;13201;51.148;13.738;2023-04-03T02:31:46;2.80;99.90
25250;DHT22;13201;51.148;13.738;2023-04-03T02:34:12;2.50;99.90
25250;DHT22;13201;51.148;13.738;2023-04-03T02:36:38;2.50;99.90
25250;DHT22;13201;51.148;13.738;2023-04-03T02:39:04;2.40;99.90
25250;DHT22;13201;51.148;13.738;2023-04-03T02:41:30;2.70;99.90
25250;DHT22;13201;51.148;13.738;2023-04-03T02:44:01;2.60;99.90
25250;DHT22;13201;51.148;13.738;2023-04-03T02:46:27;2.60;99.90
25250;DHT22;13201;51.148;13.738;2023-04-03T02:48:53;2.40;99.90
25250;DHT22;13201;51.148;13.738;2023-04-03T02:51:18;2.30;99.90
25250;DHT22;13201;51.148;13.738;2023-04-03T02:53:44;2.30;99.90
25250;DHT22;13201;51.148;13.738;2023-04-03T02:56:10;2.30;99.90
25250;DHT22;13201;51.148;13.738;2023-04-03T02:58:35;2.10;99.90
25250;DHT22;13201;51.148;13.738;2023-04-03T03:01:02;2.20;99.90
25250;DHT22;13201;51.148;13.738;2023-04-03T03:03:27;2.20;99.90
25250;DHT22;13201;51.148;13.738;2023-04-03T03:06:08;2.20;99.90
25250;DHT22;13201;51.148;13.738;2023-04-03T03:08:35;1.90;99.90
25250;DHT22;13201;51.148;13.738;2023-04-03T03:11:01;1.90;99.90
25250;DHT22;13201;51.148;13.738;2023-04-03T03:13:27;1.90;99.90
25250;DHT22;13201;51.148;13.738;2023-04-03T03:15:53;1.90;99.90
25250;DHT22;13201;51.148;13.738;2023-04-03T03:18:19;2.00;99.90
25250;DHT22;13201;51.148;13.738;2023-04-03T03:20:44;2.10;99.90
25250;DHT22;13201;51.148;13.738;2023-04-03T03:23:10;2.10;99.90
25250;DHT22;13201;51.148;13.738;2023-04-03T03:25:40;2.10;99.90
25250;DHT22;13201;51.148;13.738;2023-04-03T03:28:06;1.90;99.90
25250;DHT22;13201;51.148;13.738;2023-04-03T03:30:32;1.70;99.90
25250;DHT22;13201;51.148;13.738;2023-04-03T03:32:58;1.70;99.90
25250;DHT22;13201;51.148;13.738;2023-04-03T03:35:23;1.70;99.90
25250;DHT22;13201;51.148;13.738;2023-04-03T03:37:49;1.80;99.90
25250;DHT22;13201;51.148;13.738;2023-04-03T03:40:15;1.70;99.90
25250;DHT22;13201;51.148;13.738;2023-04-03T03:42:41;1.70;99.90
25250;DHT22;13201;51.148;13.738;2023-04-03T03:45:07;1.60;99.90
25250;DHT22;13201;51.148;13.738;2023-04-03T03:47:33;1.50;99.90
25250;DHT22;13201;51.148;13.738;2023-04-03T03:49:59;1.40;99.90
25250;DHT22;13201;51.148;13.738;2023-04-03T03:52:25;1.50;99.90
25250;DHT22;13201;51.148;13.738;2023-04-03T03:54:51;1.50;99.90
25250;DHT22;13201;51.148;13.738;2023-04-03T03:57:17;1.60;99.90
25250;DHT22;13201;51.148;13.738;2023-04-03T03:59:43;1.40;99.90
25250;DHT22;13201;51.148;13.738;2023-04-03T04:02:10;1.40;99.90
25250;DHT22;13201;51.148;13.738;2023-04-03T04:04:36;1.30;99.90
25250;DHT22;13201;51.148;13.738;2023-04-03T04:07:03;1.40;99.90
25250;DHT22;13201;51.148;13.738;2023-04-03T04:09:29;1.40;99.90
25250;DHT22;13201;51.148;13.738;2023-04-03T04:11:54;1.50;99.90
25250;DHT22;13201;51.148;13.738;2023-04-03T04:14:20;1.30;99.90
25250;DHT22;13201;51.148;13.738;2023-04-03T04:16:47;1.30;99.90
25250;DHT22;13201;51.148;13.738;2023-04-03T04:19:13;1.10;99.90
25250;DHT22;13201;51.148;13.738;2023-04-03T04:21:39;1.20;99.90
25250;DHT22;13201;51.148;13.738;2023-04-03T04:24:05;1.20;99.90
25250;DHT22;13201;51.148;13.738;2023-04-03T04:26:31;1.20;99.90
25250;DHT22;13201;51.148;13.738;2023-04-03T04:28:57;1.10;99.90
25250;DHT22;13201;51.148;13.738;2023-04-03T04:31:22;1.00;99.90
25250;DHT22;13201;51.148;13.738;2023-04-03T04:33:48;1.10;99.90
25250;DHT22;13201;51.148;13.738;2023-04-03T04:36:14;1.00;99.90
25250;DHT22;13201;51.148;13.738;2023-04-03T04:38:40;1.10;99.90
25250;DHT22;13201;51.148;13.738;2023-04-03T04:41:06;1.00;99.90
25250;DHT22;13201;51.148;13.738;2023-04-03T04:43:32;1.20;99.90
25250;DHT22;13201;51.148;13.738;2023-04-03T04:46:08;1.20;99.90
25250;DHT22;13201;51.148;13.738;2023-04-03T04:48:35;1.20;99.90
25250;DHT22;13201;51.148;13.738;2023-04-03T04:51:01;1.00;99.90
25250;DHT22;13201;51.148;13.738;2023-04-03T04:53:27;1.10;99.90
25250;DHT22;13201;51.148;13.738;2023-04-03T04:55:53;1.10;99.90
25250;DHT22;13201;51.148;13.738;2023-04-03T04:58:19;0.80;99.90
25250;DHT22;13201;51.148;13.738;2023-04-03T05:00:45;0.90;99.90
25250;DHT22;13201;51.148;13.738;2023-04-03T05:03:11;0.80;99.90
25250;DHT22;13201;51.148;13.738;2023-04-03T05:05:37;1.10;99.90
25250;DHT22;13201;51.148;13.738;2023-04-03T05:08:04;0.90;99.90
25250;DHT22;13201;51.148;13.738;2023-04-03T05:10:30;1.00;99.90
25250;DHT22;13201;51.148;13.738;2023-04-03T05:12:57;1.00;99.90
25250;DHT22;13201;51.148;13.738;2023-04-03T05:15:22;1.00;99.90
25250;DHT22;13201;51.148;13.738;2023-04-03T05:17:48;1.00;99.90
25250;DHT22;13201;51.148;13.738;2023-04-03T05:20:14;1.10;99.90
25250;DHT22;13201;51.148;13.738;2023-04-03T05:22:39;1.00;99.90
25250;DHT22;13201;51.148;13.738;2023-04-03T05:25:06;1.00;99.90
25250;DHT22;13201;51.148;13.738;2023-04-03T05:27:32;1.10;99.90
25250;DHT22;13201;51.148;13.738;2023-04-03T05:29:57;1.20;99.90
25250;DHT22;13201;51.148;13.738;2023-04-03T05:32:24;1.20;99.90
25250;DHT22;13201;51.148;13.738;2023-04-03T05:34:52;1.10;99.90
25250;DHT22;13201;51.148;13.738;2023-04-03T05:37:18;1.20;99.90
25250;DHT22;13201;51.148;13.738;2023-04-03T05:39:43;1.30;99.90
25250;DHT22;13201;51.148;13.738;2023-04-03T05:42:09;1.40;99.90
25250;DHT22;13201;51.148;13.738;2023-04-03T05:44:37;1.20;99.90
25250;DHT22;13201;51.148;13.738;2023-04-03T05:47:03;1.20;99.90
25250;DHT22;13201;51.148;13.738;2023-04-03T05:49:29;1.20;99.90
25250;DHT22;13201;51.148;13.738;2023-04-03T05:51:54;1.20;99.90
25250;DHT22;13201;51.148;13.738;2023-04-03T05:54:27;1.30;99.90
25250;DHT22;13201;51.148;13.738;2023-04-03T05:56:53;1.20;99.90
25250;DHT22;13201;51.148;13.738;2023-04-03T05:59:20;1.30;99.90
25250;DHT22;13201;51.148;13.738;2023-04-03T06:01:46;1.30;99.90
25250;DHT22;13201;51.148;13.738;2023-04-03T06:04:12;1.50;99.90
25250;DHT22;13201;51.148;13.738;2023-04-03T06:09:12;1.70;99.90
25250;DHT22;13201;51.148;13.738;2023-04-03T06:11:37;1.70;99.90
25250;DHT22;13201;51.148;13.738;2023-04-03T06:14:03;1.60;99.90
25250;DHT22;13201;51.148;13.738;2023-04-03T06:16:29;1.50;99.90
25250;DHT22;13201;51.148;13.738;2023-04-03T06:18:54;1.70;99.90
25250;DHT22;13201;51.148;13.738;2023-04-03T06:21:21;1.80;99.90
25250;DHT22;13201;51.148;13.738;2023-04-03T06:23:47;1.60;99.90
25250;DHT22;13201;51.148;13.738;2023-04-03T06:26:12;1.90;99.90
25250;DHT22;13201;51.148;13.738;2023-04-03T06:28:38;1.80;99.90
25250;DHT22;13201;51.148;13.738;2023-04-03T06:31:03;1.90;99.90
25250;DHT22;13201;51.148;13.738;2023-04-03T06:33:29;1.70;99.90
25250;DHT22;13201;51.148;13.738;2023-04-03T06:35:59;1.70;99.90
25250;DHT22;13201;51.148;13.738;2023-04-03T06:38:28;1.90;99.90
25250;DHT22;13201;51.148;13.738;2023-04-03T06:40:54;2.10;99.90
25250;DHT22;13201;51.148;13.738;2023-04-03T06:43:20;2.10;99.90
25250;DHT22;13201;51.148;13.738;2023-04-03T06:45:46;2.10;99.90
25250;DHT22;13201;51.148;13.738;2023-04-03T06:48:12;2.00;99.90
25250;DHT22;13201;51.148;13.738;2023-04-03T06:50:38;2.00;99.90
25250;DHT22;13201;51.148;13.738;2023-04-03T06:53:04;2.20;99.90
25250;DHT22;13201;51.148;13.738;2023-04-03T06:55:29;2.20;99.90
25250;DHT22;13201;51.148;13.738;2023-04-03T06:57:55;2.10;99.90
25250;DHT22;13201;51.148;13.738;2023-04-03T07:00:21;2.20;99.90
25250;DHT22;13201;51.148;13.738;2023-04-03T07:02:47;2.30;99.90
25250;DHT22;13201;51.148;13.738;2023-04-03T07:05:12;2.50;99.90
25250;DHT22;13201;51.148;13.738;2023-04-03T07:07:38;2.40;99.90
25250;DHT22;13201;51.148;13.738;2023-04-03T07:10:06;2.30;99.90
25250;DHT22;13201;51.148;13.738;2023-04-03T07:12:32;2.70;99.90
25250;DHT22;13201;51.148;13.738;2023-04-03T07:14:57;2.60;99.90
25250;DHT22;13201;51.148;13.738;2023-04-03T07:17:23;2.60;99.90
25250;DHT22;13201;51.148;13.738;2023-04-03T07:19:50;2.40;99.90
25250;DHT22;13201;51.148;13.738;2023-04-03T07:22:16;2.60;99.90
25250;DHT22;13201;51.148;13.738;2023-04-03T07:24:42;2.80;99.90
25250;DHT22;13201;51.148;13.738;2023-04-03T07:27:08;2.70;99.90
25250;DHT22;13201;51.148;13.738;2023-04-03T07:29:34;2.80;99.90
25250;DHT22;13201;51.148;13.738;2023-04-03T07:32:01;2.80;99.90
25250;DHT22;13201;51.148;13.738;2023-04-03T07:34:27;2.50;99.90
25250;DHT22;13201;51.148;13.738;2023-04-03T07:36:53;2.80;99.90
25250;DHT22;13201;51.148;13.738;2023-04-03T07:39:18;2.70;99.90
25250;DHT22;13201;51.148;13.738;2023-04-03T07:41:44;2.60;99.90
25250;DHT22;13201;51.148;13.738;2023-04-03T07:44:10;2.60;99.90
25250;DHT22;13201;51.148;13.738;2023-04-03T07:46:36;2.60;99.90
25250;DHT22;13201;51.148;13.738;2023-04-03T07:49:02;2.90;99.90
25250;DHT22;13201;51.148;13.738;2023-04-03T07:51:27;2.70;99.90
25250;DHT22;13201;51.148;13.738;2023-04-03T07:53:55;2.80;99.90
25250;DHT22;13201;51.148;13.738;2023-04-03T07:56:21;2.90;99.90
25250;DHT22;13201;51.148;13.738;2023-04-03T07:58:48;3.10;99.90
25250;DHT22;13201;51.148;13.738;2023-04-03T08:01:13;3.00;99.90
25250;DHT22;13201;51.148;13.738;2023-04-03T08:03:39;2.90;99.90
25250;DHT22;13201;51.148;13.738;2023-04-03T08:06:07;3.20;99.90
25250;DHT22;13201;51.148;13.738;2023-04-03T08:08:34;3.20;99.90
25250;DHT22;13201;51.148;13.738;2023-04-03T08:11:01;3.20;99.90
25250;DHT22;13201;51.148;13.738;2023-04-03T08:13:28;3.20;99.90
25250;DHT22;13201;51.148;13.738;2023-04-03T08:15:54;3.20;99.90
25250;DHT22;13201;51.148;13.738;2023-04-03T08:18:23;3.30;99.90
25250;DHT22;13201;51.148;13.738;2023-04-03T08:20:51;3.40;99.90
25250;DHT22;13201;51.148;13.738;2023-04-03T08:23:17;3.30;99.90
25250;DHT22;13201;51.148;13.738;2023-04-03T08:25:44;3.50;99.90
25250;DHT22;13201;51.148;13.738;2023-04-03T08:28:11;3.70;99.90
25250;DHT22;13201;51.148;13.738;2023-04-03T08:30:39;3.60;99.90
25250;DHT22;13201;51.148;13.738;2023-04-03T08:33:06;3.60;99.90
25250;DHT22;13201;51.148;13.738;2023-04-03T08:35:32;3.20;99.90
25250;DHT22;13201;51.148;13.738;2023-04-03T08:37:58;3.50;99.90
25250;DHT22;13201;51.148;13.738;2023-04-03T08:40:24;3.60;99.90
25250;DHT22;13201;51.148;13.738;2023-04-03T08:43:43;3.70;99.90
25250;DHT22;13201;51.148;13.738;2023-04-03T08:45:50;3.90;99.90
25250;DHT22;13201;51.148;13.738;2023-04-03T08:48:21;4.20;99.90
25250;DHT22;13201;51.148;13.738;2023-04-03T08:50:53;4.20;99.90
25250;DHT22;13201;51.148;13.738;2023-04-03T08:53:26;4.60;99.90
25250;DHT22;13201;51.148;13.738;2023-04-03T08:55:55;4.50;99.90
25250;DHT22;13201;51.148;13.738;2023-04-03T08:58:52;4.60;99.90
25250;DHT22;13201;51.148;13.738;2023-04-03T09:01:45;4.60;99.90
25250;DHT22;13201;51.148;13.738;2023-04-03T09:04:12;4.50;99.90
25250;DHT22;13201;51.148;13.738;2023-04-03T09:06:39;4.50;99.90
25250;DHT22;13201;51.148;13.738;2023-04-03T09:17:15;4.70;99.90
25250;DHT22;13201;51.148;13.738;2023-04-03T09:19:56;5.00;99.90
25250;DHT22;13201;51.148;13.738;2023-04-03T09:22:25;5.40;99.90
25250;DHT22;13201;51.148;13.738;2023-04-03T09:25:14;5.50;99.90
25250;DHT22;13201;51.148;13.738;2023-04-03T09:27:41;5.40;99.90
25250;DHT22;13201;51.148;13.738;2023-04-03T09:30:13;5.50;99.90
25250;DHT22;13201;51.148;13.738;2023-04-03T09:32:39;5.40;99.90
25250;DHT22;13201;51.148;13.738;2023-04-03T09:35:28;5.60;99.90
25250;DHT22;13201;51.148;13.738;2023-04-03T09:40:38;5.40;99.90
25250;DHT22;13201;51.148;13.738;2023-04-03T09:43:30;5.30;99.90
25250;DHT22;13201;51.148;13.738;2023-04-03T09:46:24;5.40;99.90
25250;DHT22;13201;51.148;13.738;2023-04-03T09:48:55;5.30;99.90
25250;DHT22;13201;51.148;13.738;2023-04-03T09:51:25;5.40;99.90
25250;DHT22;13201;51.148;13.738;2023-04-03T09:53:52;5.80;99.90
25250;DHT22;13201;51.148;13.738;2023-04-03T09:59:13;5.80;99.90
25250;DHT22;13201;51.148;13.738;2023-04-03T10:01:39;5.70;99.90
25250;DHT22;13201;51.148;13.738;2023-04-03T10:06:51;6.00;99.90
25250;DHT22;13201;51.148;13.738;2023-04-03T10:09:24;6.10;99.90
25250;DHT22;13201;51.148;13.738;2023-04-03T10:12:07;5.80;99.90
25250;DHT22;13201;51.148;13.738;2023-04-03T10:14:36;5.50;99.90
25250;DHT22;13201;51.148;13.738;2023-04-03T10:28:01;6.00;99.90
25250;DHT22;13201;51.148;13.738;2023-04-03T10:46:47;6.00;99.90
25250;DHT22;13201;51.148;13.738;2023-04-03T10:51:47;6.90;99.90
25250;DHT22;13201;51.148;13.738;2023-04-03T10:54:17;6.60;99.90
25250;DHT22;13201;51.148;13.738;2023-04-03T10:57:03;6.40;99.90
25250;DHT22;13201;51.148;13.738;2023-04-03T10:59:35;6.40;99.90
25250;DHT22;13201;51.148;13.738;2023-04-03T11:04:42;7.10;99.90
25250;DHT22;13201;51.148;13.738;2023-04-03T11:07:18;7.40;99.80
25250;DHT22;13201;51.148;13.738;2023-04-03T11:09:47;6.90;99.50
25250;DHT22;13201;51.148;13.738;2023-04-03T11:12:18;6.50;99.60
25250;DHT22;13201;51.148;13.738;2023-04-03T11:14:48;6.40;99.90
25250;DHT22;13201;51.148;13.738;2023-04-03T11:27:45;6.80;99.90
25250;DHT22;13201;51.148;13.738;2023-04-03T11:30:27;6.90;99.50
25250;DHT22;13201;51.148;13.738;2023-04-03T11:35:40;6.80;99.90
25250;DHT22;13201;51.148;13.738;2023-04-03T11:38:17;6.70;99.20
25250;DHT22;13201;51.148;13.738;2023-04-03T11:40:45;6.60;99.70
25250;DHT22;13201;51.148;13.738;2023-04-03T11:45:53;6.70;99.80
25250;DHT22;13201;51.148;13.738;2023-04-03T11:53:38;6.60;99.70
25250;DHT22;13201;51.148;13.738;2023-04-03T11:56:27;6.90;98.80
25250;DHT22;13201;51.148;13.738;2023-04-03T12:01:53;7.20;99.10
25250;DHT22;13201;51.148;13.738;2023-04-03T12:04:24;6.80;99.90
25250;DHT22;13201;51.148;13.738;2023-04-03T12:07:11;6.70;99.10
25250;DHT22;13201;51.148;13.738;2023-04-03T12:15:19;6.60;99.60
25250;DHT22;13201;51.148;13.738;2023-04-03T12:17:46;6.50;99.80
25250;DHT22;13201;51.148;13.738;2023-04-03T12:24:00;6.60;99.20
25250;DHT22;13201;51.148;13.738;2023-04-03T12:32:26;6.40;99.20
25250;DHT22;13201;51.148;13.738;2023-04-03T12:48:25;6.90;99.60
25250;DHT22;13201;51.148;13.738;2023-04-03T12:50:52;6.90;99.90
25250;DHT22;13201;51.148;13.738;2023-04-03T12:53:28;6.90;99.60
25250;DHT22;13201;51.148;13.738;2023-04-03T12:56:25;6.90;99.40
25250;DHT22;13201;51.148;13.738;2023-04-03T12:58:53;7.10;99.30
25250;DHT22;13201;51.148;13.738;2023-04-03T13:01:24;7.10;98.60
25250;DHT22;13201;51.148;13.738;2023-04-03T13:03:54;6.50;99.50
25250;DHT22;13201;51.148;13.738;2023-04-03T13:06:27;6.50;99.20
25250;DHT22;13201;51.148;13.738;2023-04-03T13:08:58;6.40;99.00
25250;DHT22;13201;51.148;13.738;2023-04-03T13:11:27;6.50;99.30
25250;DHT22;13201;51.148;13.738;2023-04-03T13:14:15;6.40;99.10
25250;DHT22;13201;51.148;13.738;2023-04-03T13:16:41;6.50;98.60
25250;DHT22;13201;51.148;13.738;2023-04-03T13:19:16;6.50;98.90
25250;DHT22;13201;51.148;13.738;2023-04-03T13:21:42;7.50;98.70
25250;DHT22;13201;51.148;13.738;2023-04-03T13:24:09;7.80;98.30
25250;DHT22;13201;51.148;13.738;2023-04-03T13:26:35;7.90;97.80
25250;DHT22;13201;51.148;13.738;2023-04-03T13:29:07;7.10;99.00
25250;DHT22;13201;51.148;13.738;2023-04-03T13:31:38;6.80;99.20
25250;DHT22;13201;51.148;13.738;2023-04-03T13:34:12;6.40;99.40
25250;DHT22;13201;51.148;13.738;2023-04-03T13:42:20;6.50;99.40
25250;DHT22;13201;51.148;13.738;2023-04-03T13:44:48;6.60;98.90
25250;DHT22;13201;51.148;13.738;2023-04-03T13:47:18;6.70;99.50
25250;DHT22;13201;51.148;13.738;2023-04-03T13:52:41;6.50;99.30
25250;DHT22;13201;51.148;13.738;2023-04-03T13:55:29;6.20;99.80
25250;DHT22;13201;51.148;13.738;2023-04-03T13:58:02;6.30;99.20
25250;DHT22;13201;51.148;13.738;2023-04-03T14:00:38;6.20;99.00
25250;DHT22;13201;51.148;13.738;2023-04-03T14:03:29;6.30;99.10
25250;DHT22;13201;51.148;13.738;2023-04-03T14:05:55;6.30;98.60
25250;DHT22;13201;51.148;13.738;2023-04-03T14:08:21;6.00;98.90
25250;DHT22;13201;51.148;13.738;2023-04-03T14:10:48;6.10;99.40
25250;DHT22;13201;51.148;13.738;2023-04-03T14:13:17;6.00;99.30
25250;DHT22;13201;51.148;13.738;2023-04-03T14:15:44;6.20;99.70
25250;DHT22;13201;51.148;13.738;2023-04-03T14:18:14;6.10;99.90
25250;DHT22;13201;51.148;13.738;2023-04-03T14:20:41;6.20;99.90
25250;DHT22;13201;51.148;13.738;2023-04-03T14:23:07;5.90;99.50
25250;DHT22;13201;51.148;13.738;2023-04-03T14:25:33;6.20;99.30
25250;DHT22;13201;51.148;13.738;2023-04-03T14:28:00;6.20;99.30
25250;DHT22;13201;51.148;13.738;2023-04-03T14:30:32;6.40;99.50
25250;DHT22;13201;51.148;13.738;2023-04-03T14:33:00;7.30;99.20
25250;DHT22;13201;51.148;13.738;2023-04-03T14:35:26;7.50;98.50
25250;DHT22;13201;51.148;13.738;2023-04-03T14:37:52;8.20;97.80
25250;DHT22;13201;51.148;13.738;2023-04-03T14:40:25;9.20;97.80
25250;DHT22;13201;51.148;13.738;2023-04-03T14:42:51;9.40;97.00
25250;DHT22;13201;51.148;13.738;2023-04-03T14:45:21;9.50;96.90
25250;DHT22;13201;51.148;13.738;2023-04-03T14:47:52;8.90;95.90
25250;DHT22;13201;51.148;13.738;2023-04-03T14:50:23;8.90;95.80
25250;DHT22;13201;51.148;13.738;2023-04-03T14:52:52;8.30;95.80
25250;DHT22;13201;51.148;13.738;2023-04-03T14:55:22;8.10;96.50
25250;DHT22;13201;51.148;13.738;2023-04-03T14:57:48;7.90;97.10
25250;DHT22;13201;51.148;13.738;2023-04-03T15:00:19;7.80;96.40
25250;DHT22;13201;51.148;13.738;2023-04-03T15:02:45;7.50;96.50
25250;DHT22;13201;51.148;13.738;2023-04-03T15:05:12;7.40;96.80
25250;DHT22;13201;51.148;13.738;2023-04-03T15:07:43;7.00;97.20
25250;DHT22;13201;51.148;13.738;2023-04-03T15:10:30;7.00;97.80
25250;DHT22;13201;51.148;13.738;2023-04-03T15:12:57;6.60;97.80
25250;DHT22;13201;51.148;13.738;2023-04-03T15:15:23;6.50;98.50
25250;DHT22;13201;51.148;13.738;2023-04-03T15:17:54;6.30;98.40
25250;DHT22;13201;51.148;13.738;2023-04-03T15:20:24;6.40;98.30
25250;DHT22;13201;51.148;13.738;2023-04-03T15:22:50;6.30;98.00
25250;DHT22;13201;51.148;13.738;2023-04-03T15:25:16;6.30;98.10
25250;DHT22;13201;51.148;13.738;2023-04-03T15:27:42;6.50;98.30
25250;DHT22;13201;51.148;13.738;2023-04-03T15:30:11;6.20;98.30
25250;DHT22;13201;51.148;13.738;2023-04-03T15:32:38;6.30;98.40
25250;DHT22;13201;51.148;13.738;2023-04-03T15:35:04;6.00;98.40
25250;DHT22;13201;51.148;13.738;2023-04-03T15:37:30;6.00;99.40
25250;DHT22;13201;51.148;13.738;2023-04-03T15:39:56;6.00;98.80
25250;DHT22;13201;51.148;13.738;2023-04-03T15:42:22;5.90;98.90
25250;DHT22;13201;51.148;13.738;2023-04-03T15:44:47;5.70;99.00
25250;DHT22;13201;51.148;13.738;2023-04-03T15:47:13;5.80;99.10
25250;DHT22;13201;51.148;13.738;2023-04-03T15:49:39;5.70;99.00
25250;DHT22;13201;51.148;13.738;2023-04-03T15:52:05;5.70;99.10
25250;DHT22;13201;51.148;13.738;2023-04-03T15:54:31;5.80;99.60
25250;DHT22;13201;51.148;13.738;2023-04-03T15:56:57;5.70;99.10
25250;DHT22;13201;51.148;13.738;2023-04-03T15:59:22;5.80;99.10
25250;DHT22;13201;51.148;13.738;2023-04-03T16:01:49;5.60;99.00
25250;DHT22;13201;51.148;13.738;2023-04-03T16:04:16;5.80;99.20
25250;DHT22;13201;51.148;13.738;2023-04-03T16:06:42;5.80;99.00
25250;DHT22;13201;51.148;13.738;2023-04-03T16:09:08;5.90;99.10
25250;DHT22;13201;51.148;13.738;2023-04-03T16:11:33;5.70;98.40
25250;DHT22;13201;51.148;13.738;2023-04-03T16:14:01;5.80;98.50
25250;DHT22;13201;51.148;13.738;2023-04-03T16:16:27;5.80;98.60
25250;DHT22;13201;51.148;13.738;2023-04-03T16:18:54;5.80;98.70
25250;DHT22;13201;51.148;13.738;2023-04-03T16:21:20;5.90;99.00
25250;DHT22;13201;51.148;13.738;2023-04-03T16:23:46;5.80;98.60
25250;DHT22;13201;51.148;13.738;2023-04-03T16:26:12;5.60;97.80
25250;DHT22;13201;51.148;13.738;2023-04-03T16:28:38;5.50;99.10
25250;DHT22;13201;51.148;13.738;2023-04-03T16:31:05;5.60;98.40
25250;DHT22;13201;51.148;13.738;2023-04-03T16:33:31;5.60;98.10
25250;DHT22;13201;51.148;13.738;2023-04-03T16:35:57;5.50;98.10
25250;DHT22;13201;51.148;13.738;2023-04-03T16:38:24;5.50;98.20
25250;DHT22;13201;51.148;13.738;2023-04-03T16:40:50;5.40;98.70
25250;DHT22;13201;51.148;13.738;2023-04-03T16:43:18;5.60;99.00
25250;DHT22;13201;51.148;13.738;2023-04-03T16:45:43;5.60;98.80
25250;DHT22;13201;51.148;13.738;2023-04-03T16:48:09;5.80;98.90
25250;DHT22;13201;51.148;13.738;2023-04-03T16:50:35;5.60;99.00
25250;DHT22;13201;51.148;13.738;2023-04-03T16:53:01;5.40;99.80
25250;DHT22;13201;51.148;13.738;2023-04-03T16:55:28;5.40;98.90
25250;DHT22;13201;51.148;13.738;2023-04-03T16:57:54;5.10;99.00
25250;DHT22;13201;51.148;13.738;2023-04-03T17:00:20;5.20;98.90
25250;DHT22;13201;51.148;13.738;2023-04-03T17:02:46;4.80;98.40
25250;DHT22;13201;51.148;13.738;2023-04-03T17:05:12;4.90;98.60
25250;DHT22;13201;51.148;13.738;2023-04-03T17:07:37;4.90;98.20
25250;DHT22;13201;51.148;13.738;2023-04-03T17:10:03;5.10;97.90
25250;DHT22;13201;51.148;13.738;2023-04-03T17:12:29;5.10;97.70
25250;DHT22;13201;51.148;13.738;2023-04-03T17:14:55;5.10;97.70
25250;DHT22;13201;51.148;13.738;2023-04-03T17:17:24;5.00;98.40
25250;DHT22;13201;51.148;13.738;2023-04-03T17:19:51;5.00;98.10
25250;DHT22;13201;51.148;13.738;2023-04-03T17:22:19;5.10;98.40
25250;DHT22;13201;51.148;13.738;2023-04-03T17:24:45;5.00;98.50
25250;DHT22;13201;51.148;13.738;2023-04-03T17:27:10;5.00;98.40
25250;DHT22;13201;51.148;13.738;2023-04-03T17:29:36;5.10;98.40
25250;DHT22;13201;51.148;13.738;2023-04-03T17:32:02;5.10;98.90
25250;DHT22;13201;51.148;13.738;2023-04-03T17:34:28;4.90;99.00
25250;DHT22;13201;51.148;13.738;2023-04-03T17:36:53;5.10;99.20
25250;DHT22;13201;51.148;13.738;2023-04-03T17:39:19;4.80;99.20
25250;DHT22;13201;51.148;13.738;2023-04-03T17:41:45;5.10;99.20
25250;DHT22;13201;51.148;13.738;2023-04-03T17:44:12;5.10;99.00
25250;DHT22;13201;51.148;13.738;2023-04-03T17:46:37;5.20;99.10
25250;DHT22;13201;51.148;13.738;2023-04-03T17:49:03;5.20;99.10
25250;DHT22;13201;51.148;13.738;2023-04-03T17:51:30;5.20;99.40
25250;DHT22;13201;51.148;13.738;2023-04-03T17:53:59;5.30;99.40
25250;DHT22;13201;51.148;13.738;2023-04-03T17:56:25;5.20;99.50